Time;durP1;ratioP1;P1;durP2;ratioP2;P2;SDS_P1;SDS_P2;PMS_P1;PMS_P2;Temp;Humidity;BMP_temperature;BMP_pressure;BME280_temperature;BME280_humidity;BME280_pressure;Samples;Min_cycle;Max_cycle;Signal;HPM_P1;HPM_P2
2023/07/08 00:00:49;;;;;;;10.18;6.68;;;18.50;99.90;;;;;;4969788;28;20560;-62
2023/07/08 00:03:15;;;;;;;10.38;6.38;;;18.40;99.90;;;;;;4954124;28;20540;-63
2023/07/08 00:05:41;;;;;;;9.30;6.28;;;18.30;99.90;;;;;;4972087;28;20031;-62
2023/07/08 00:08:14;;;;;;;13.13;6.85;;;18.30;99.90;;;;;;4978698;28;20064;-62
2023/07/08 00:10:40;;;;;;;10.75;6.60;;;18.20;99.90;;;;;;4976737;28;20035;-62
2023/07/08 00:13:07;;;;;;;7.85;6.50;;;18.20;99.90;;;;;;4954779;28;20046;-62
2023/07/08 00:15:33;;;;;;;10.60;6.35;;;18.10;99.90;;;;;;4972537;28;20659;-65
2023/07/08 00:17:59;;;;;;;10.48;6.72;;;18.10;99.90;;;;;;4975168;28;20035;-62
2023/07/08 00:20:38;;;;;;;7.45;5.85;;;18.00;99.90;;;;;;4975476;28;20043;-62
2023/07/08 00:23:05;;;;;;;9.20;6.20;;;18.00;99.90;;;;;;4973337;28;20924;-62
2023/07/08 00:25:32;;;;;;;10.25;6.32;;;17.90;99.90;;;;;;4977454;28;20134;-62
2023/07/08 00:27:57;;;;;;;9.45;6.60;;;17.90;99.90;;;;;;4975089;28;20046;-62
2023/07/08 00:30:31;;;;;;;12.65;6.80;;;17.90;99.90;;;;;;4975688;28;20042;-62
2023/07/08 00:32:58;;;;;;;7.63;6.10;;;17.90;99.90;;;;;;4979932;28;20054;-65
2023/07/08 00:35:37;;;;;;;9.68;6.47;;;17.80;99.90;;;;;;4974879;28;20082;-62
2023/07/08 00:38:15;;;;;;;12.23;7.00;;;17.80;99.90;;;;;;4974655;28;20765;-62
2023/07/08 00:40:52;;;;;;;8.95;6.75;;;17.80;99.90;;;;;;4973958;28;20124;-62
2023/07/08 00:43:22;;;;;;;9.68;6.57;;;17.70;99.90;;;;;;4975058;28;20045;-62
2023/07/08 00:45:51;;;;;;;9.98;6.68;;;17.60;99.90;;;;;;4974975;28;20039;-62
2023/07/08 00:48:28;;;;;;;9.93;6.53;;;17.60;99.90;;;;;;4972830;28;20088;-65
2023/07/08 00:50:54;;;;;;;10.13;6.38;;;17.60;99.90;;;;;;4976361;28;20050;-62
2023/07/08 00:53:33;;;;;;;11.50;6.75;;;17.60;99.90;;;;;;4974978;28;20031;-62
2023/07/08 00:56:06;;;;;;;12.95;6.95;;;17.60;99.90;;;;;;4975236;28;20084;-62
2023/07/08 00:58:35;;;;;;;11.90;6.88;;;17.50;99.90;;;;;;4975608;28;20031;-62
2023/07/08 01:01:04;;;;;;;11.48;7.07;;;17.50;99.90;;;;;;4976866;28;20749;-62
2023/07/08 01:03:31;;;;;;;11.60;7.00;;;17.50;99.90;;;;;;4974320;28;20043;-62
2023/07/08 01:05:59;;;;;;;10.43;7.07;;;17.40;99.90;;;;;;4977665;28;20138;-61
2023/07/08 01:08:28;;;;;;;11.00;6.75;;;17.40;99.90;;;;;;4973540;28;20049;-63
2023/07/08 01:11:01;;;;;;;9.98;6.97;;;17.30;99.90;;;;;;4974296;28;20042;-62
2023/07/08 01:13:27;;;;;;;10.50;7.10;;;17.30;99.90;;;;;;4970707;28;20058;-62
2023/07/08 01:15:53;;;;;;;10.70;7.10;;;17.30;99.90;;;;;;4973794;28;20039;-64
2023/07/08 01:18:21;;;;;;;10.60;7.20;;;17.30;99.90;;;;;;4974390;28;20049;-62
2023/07/08 01:20:47;;;;;;;10.57;7.32;;;17.20;99.90;;;;;;4974538;28;20039;-62
2023/07/08 01:23:13;;;;;;;10.43;6.95;;;17.20;99.90;;;;;;4972445;28;20057;-62
2023/07/08 01:25:42;;;;;;;11.18;7.30;;;17.10;99.90;;;;;;4972206;28;20039;-63
2023/07/08 01:28:08;;;;;;;12.63;7.07;;;17.10;99.90;;;;;;4974029;28;20046;-62
2023/07/08 01:30:35;;;;;;;11.25;7.10;;;17.10;99.90;;;;;;4974273;28;20045;-64
2023/07/08 01:33:07;;;;;;;12.43;7.65;;;17.10;99.90;;;;;;4976274;28;20093;-62
2023/07/08 01:35:34;;;;;;;13.52;7.90;;;17.10;99.90;;;;;;4973565;28;20448;-62
2023/07/08 01:38:03;;;;;;;9.82;7.25;;;17.10;99.90;;;;;;4972142;28;20540;-64
2023/07/08 01:40:31;;;;;;;10.05;7.32;;;17.10;99.90;;;;;;4981253;28;20039;-62
2023/07/08 01:42:58;;;;;;;12.60;7.55;;;17.00;99.90;;;;;;4973909;28;20089;-62
2023/07/08 01:45:27;;;;;;;11.70;7.80;;;17.00;99.90;;;;;;4974051;28;20086;-62
2023/07/08 01:48:09;;;;;;;9.90;7.05;;;17.00;99.90;;;;;;4969007;28;20042;-64
2023/07/08 01:50:38;;;;;;;10.25;7.80;;;16.90;99.90;;;;;;4971961;28;20042;-62
2023/07/08 01:53:13;;;;;;;11.20;7.45;;;16.90;99.90;;;;;;4972690;28;20829;-61
2023/07/08 01:55:39;;;;;;;12.10;8.00;;;16.90;99.90;;;;;;4971537;28;20066;-62
2023/07/08 01:58:04;;;;;;;10.00;7.35;;;16.80;99.90;;;;;;4972801;28;20031;-63
2023/07/08 02:00:30;;;;;;;12.32;7.50;;;16.80;99.90;;;;;;4973596;28;20591;-61
2023/07/08 02:02:56;;;;;;;9.73;7.10;;;16.70;99.90;;;;;;4969922;28;20046;-61
2023/07/08 02:05:23;;;;;;;10.98;7.68;;;16.70;99.90;;;;;;4972292;28;20030;-62
2023/07/08 02:07:48;;;;;;;11.93;7.38;;;16.70;99.90;;;;;;4973536;28;20047;-62
2023/07/08 02:10:14;;;;;;;11.90;7.57;;;16.70;99.90;;;;;;4972987;28;20489;-62
2023/07/08 02:12:40;;;;;;;11.88;7.80;;;16.70;99.90;;;;;;4973835;28;20045;-64
2023/07/08 02:15:08;;;;;;;13.57;7.80;;;16.60;99.90;;;;;;4961658;28;20043;-64
2023/07/08 02:17:33;;;;;;;12.80;7.82;;;16.60;99.90;;;;;;4972423;28;20049;-65
2023/07/08 02:19:59;;;;;;;11.25;7.65;;;16.60;99.90;;;;;;4970366;28;20131;-63
2023/07/08 02:22:25;;;;;;;12.25;7.70;;;16.60;99.90;;;;;;4975207;28;20066;-62
2023/07/08 02:24:50;;;;;;;12.68;7.68;;;16.60;99.90;;;;;;4973396;28;20041;-61
2023/07/08 02:27:16;;;;;;;11.30;7.72;;;16.60;99.90;;;;;;4973375;28;20093;-64
2023/07/08 02:29:42;;;;;;;12.18;7.53;;;16.50;99.90;;;;;;4978804;28;20043;-63
2023/07/08 02:32:09;;;;;;;18.80;8.50;;;16.50;99.90;;;;;;4972697;28;20050;-62
2023/07/08 02:34:36;;;;;;;14.73;7.95;;;16.50;99.90;;;;;;4955768;28;20078;-62
2023/07/08 02:37:02;;;;;;;12.35;7.43;;;16.50;99.90;;;;;;4973315;28;20085;-62
2023/07/08 02:39:27;;;;;;;14.50;7.85;;;16.50;99.90;;;;;;4983403;28;20110;-61
2023/07/08 02:41:53;;;;;;;9.85;8.02;;;16.50;99.90;;;;;;4972958;28;20138;-61
2023/07/08 02:44:19;;;;;;;11.18;7.65;;;16.50;99.90;;;;;;4973180;28;20038;-61
2023/07/08 02:46:44;;;;;;;11.27;7.63;;;16.40;99.90;;;;;;4980854;28;20440;-62
2023/07/08 02:49:10;;;;;;;13.15;8.27;;;16.50;99.90;;;;;;4973148;28;20077;-61
2023/07/08 02:51:36;;;;;;;11.63;7.95;;;16.50;99.90;;;;;;4973146;28;20038;-62
2023/07/08 02:54:01;;;;;;;10.40;7.68;;;16.40;99.90;;;;;;4960176;28;20042;-61
2023/07/08 02:56:27;;;;;;;10.18;8.02;;;16.40;99.90;;;;;;4980519;28;20043;-63
2023/07/08 02:58:53;;;;;;;11.23;8.13;;;16.40;99.90;;;;;;4972627;28;20481;-63
2023/07/08 03:01:19;;;;;;;11.43;7.38;;;16.30;99.90;;;;;;4972221;28;20117;-64
2023/07/08 03:03:45;;;;;;;11.55;7.70;;;16.30;99.90;;;;;;4971057;28;20160;-62
2023/07/08 03:06:11;;;;;;;12.15;7.93;;;16.30;99.90;;;;;;4971243;28;20556;-62
2023/07/08 03:08:37;;;;;;;11.13;7.90;;;16.30;99.90;;;;;;4972148;28;20038;-62
2023/07/08 03:11:06;;;;;;;10.90;8.05;;;16.30;99.90;;;;;;4969820;28;20616;-61
2023/07/08 03:13:33;;;;;;;13.70;8.32;;;16.30;99.90;;;;;;4972648;28;20046;-61
2023/07/08 03:16:00;;;;;;;11.60;8.35;;;16.30;99.90;;;;;;4972760;28;20108;-63
2023/07/08 03:18:26;;;;;;;14.25;8.38;;;16.30;99.90;;;;;;4970884;28;20078;-62
2023/07/08 03:20:55;;;;;;;12.00;8.35;;;16.30;99.90;;;;;;4974899;28;20042;-62
2023/07/08 03:23:24;;;;;;;12.30;7.97;;;16.30;99.90;;;;;;4972379;28;20098;-61
2023/07/08 03:25:51;;;;;;;12.13;8.40;;;16.30;99.90;;;;;;4972426;28;20038;-62
2023/07/08 03:28:16;;;;;;;11.43;8.30;;;16.20;99.90;;;;;;4967397;28;20069;-61
2023/07/08 03:30:43;;;;;;;12.32;7.93;;;16.20;99.90;;;;;;4953634;28;20478;-63
2023/07/08 03:33:09;;;;;;;13.50;7.97;;;16.20;99.90;;;;;;4972474;28;20493;-62
2023/07/08 03:35:35;;;;;;;12.70;8.50;;;16.20;99.90;;;;;;4977068;28;20119;-61
2023/07/08 03:38:01;;;;;;;11.85;7.95;;;16.20;99.90;;;;;;4954438;28;20126;-62
2023/07/08 03:40:27;;;;;;;12.63;8.32;;;16.20;99.90;;;;;;4971216;28;20046;-61
2023/07/08 03:42:52;;;;;;;15.40;8.20;;;16.20;99.90;;;;;;4970644;28;20042;-62
2023/07/08 03:45:18;;;;;;;12.50;9.05;;;16.20;99.90;;;;;;4973177;28;20090;-62
2023/07/08 03:47:44;;;;;;;11.85;8.30;;;16.20;99.90;;;;;;4971457;28;20049;-61
2023/07/08 03:50:18;;;;;;;11.65;8.32;;;16.20;99.90;;;;;;4975430;28;20051;-64
2023/07/08 03:52:45;;;;;;;14.55;8.40;;;16.30;99.90;;;;;;4980059;28;20046;-62
2023/07/08 03:55:11;;;;;;;13.68;8.40;;;16.30;99.90;;;;;;4982985;28;20042;-62
2023/07/08 03:57:37;;;;;;;12.60;8.25;;;16.20;99.90;;;;;;4976260;28;20031;-62
2023/07/08 04:00:04;;;;;;;11.32;8.30;;;16.20;99.90;;;;;;4972968;28;20106;-62
2023/07/08 04:02:30;;;;;;;11.20;8.00;;;16.20;99.90;;;;;;4973247;28;20102;-61
2023/07/08 04:04:55;;;;;;;12.55;8.43;;;16.20;99.90;;;;;;4976506;28;20078;-62
2023/07/08 04:07:21;;;;;;;10.90;8.60;;;16.30;99.90;;;;;;4975304;28;20066;-62
2023/07/08 04:09:49;;;;;;;11.02;9.07;;;16.30;99.90;;;;;;4976114;28;20119;-62
2023/07/08 04:12:15;;;;;;;12.55;8.30;;;16.30;99.90;;;;;;4972734;28;20606;-62
2023/07/08 04:14:42;;;;;;;12.05;8.50;;;16.30;99.90;;;;;;4974029;28;20111;-62
2023/07/08 04:17:09;;;;;;;11.45;8.73;;;16.40;99.90;;;;;;4972349;28;20465;-62
2023/07/08 04:19:35;;;;;;;11.65;8.27;;;16.40;99.90;;;;;;4974571;28;20047;-61
2023/07/08 04:22:02;;;;;;;14.25;8.52;;;16.40;99.90;;;;;;4975613;28;20046;-61
2023/07/08 04:24:28;;;;;;;12.02;8.48;;;16.40;99.90;;;;;;4975936;28;20038;-62
2023/07/08 04:26:54;;;;;;;11.18;8.20;;;16.50;99.90;;;;;;4972898;28;20069;-65
2023/07/08 04:29:21;;;;;;;12.32;8.05;;;16.50;99.90;;;;;;4974767;28;20034;-62
2023/07/08 04:31:48;;;;;;;11.82;8.63;;;16.60;99.90;;;;;;4975433;28;20046;-61
2023/07/08 04:34:14;;;;;;;12.35;8.50;;;16.60;99.90;;;;;;4980901;28;20081;-61
2023/07/08 04:36:40;;;;;;;11.65;8.13;;;16.60;99.90;;;;;;4974946;28;20114;-61
2023/07/08 04:39:07;;;;;;;14.70;8.77;;;16.70;99.90;;;;;;4974933;28;20145;-61
2023/07/08 04:41:32;;;;;;;12.15;8.40;;;16.70;99.90;;;;;;4976672;28;20038;-61
2023/07/08 04:44:01;;;;;;;10.93;8.48;;;16.80;99.90;;;;;;4983739;28;20046;-62
2023/07/08 04:46:42;;;;;;;12.77;8.27;;;16.80;99.90;;;;;;4975130;28;20102;-62
2023/07/08 04:49:09;;;;;;;9.63;8.07;;;16.90;99.90;;;;;;4975168;28;20085;-61
2023/07/08 04:51:36;;;;;;;13.20;8.73;;;16.90;99.90;;;;;;4976735;28;20046;-65
2023/07/08 04:54:02;;;;;;;11.35;8.52;;;16.90;99.90;;;;;;4987352;28;20421;-64
2023/07/08 04:56:45;;;;;;;13.57;9.32;;;17.00;99.90;;;;;;4968937;28;20469;-64
2023/07/08 04:59:16;;;;;;;13.43;8.75;;;17.00;99.90;;;;;;4985396;28;20385;-64
2023/07/08 05:01:42;;;;;;;14.63;8.68;;;17.10;99.90;;;;;;4985134;28;20117;-64
2023/07/08 05:04:09;;;;;;;14.38;8.93;;;17.10;99.90;;;;;;4969993;28;20129;-68
2023/07/08 05:06:35;;;;;;;11.23;8.43;;;17.10;99.90;;;;;;4976827;28;21016;-65
2023/07/08 05:09:02;;;;;;;10.65;8.55;;;17.20;99.90;;;;;;4939900;28;20448;-64
2023/07/08 05:11:28;;;;;;;11.82;8.70;;;17.20;99.90;;;;;;4988295;28;20030;-64
2023/07/08 05:13:54;;;;;;;10.27;8.60;;;17.20;99.90;;;;;;4983472;28;20165;-64
2023/07/08 05:16:20;;;;;;;11.18;8.70;;;17.30;99.90;;;;;;4956490;28;20113;-64
2023/07/08 05:18:46;;;;;;;12.02;8.75;;;17.40;99.90;;;;;;4987878;28;20476;-64
2023/07/08 05:21:12;;;;;;;12.02;8.43;;;17.40;99.90;;;;;;4986777;28;20069;-65
2023/07/08 05:23:38;;;;;;;12.15;8.50;;;17.40;99.90;;;;;;4978463;28;20060;-65
2023/07/08 05:26:05;;;;;;;12.30;8.82;;;17.50;99.90;;;;;;4984502;28;20485;-64
2023/07/08 05:28:31;;;;;;;12.65;9.25;;;17.60;99.90;;;;;;4970341;28;20556;-67
2023/07/08 05:30:56;;;;;;;12.60;8.80;;;17.60;99.90;;;;;;4962556;28;20042;-68
2023/07/08 05:33:27;;;;;;;13.68;9.05;;;17.70;99.90;;;;;;4978653;28;20038;-67
2023/07/08 05:35:53;;;;;;;10.68;8.45;;;17.80;99.90;;;;;;4973176;28;20050;-67
2023/07/08 05:38:19;;;;;;;14.50;9.07;;;17.80;99.90;;;;;;5309348;22;20043;-71
2023/07/08 05:40:54;;;;;;;13.77;8.73;;;17.90;99.90;;;;;;4978400;28;20046;-71
2023/07/08 05:43:21;;;;;;;14.45;9.20;;;18.00;99.90;;;;;;4952200;28;20038;-71
2023/07/08 05:45:46;;;;;;;13.35;8.70;;;18.10;99.90;;;;;;4959723;28;20510;-71
2023/07/08 05:48:12;;;;;;;14.50;9.02;;;18.10;99.90;;;;;;4942535;28;20138;-71
2023/07/08 05:50:39;;;;;;;11.70;8.70;;;18.20;99.90;;;;;;4955363;28;20647;-71
2023/07/08 05:53:05;;;;;;;13.23;8.55;;;18.30;99.90;;;;;;4974663;28;20061;-71
2023/07/08 05:55:34;;;;;;;14.95;8.60;;;18.40;99.90;;;;;;4964912;28;20085;-71
2023/07/08 05:57:59;;;;;;;12.05;8.55;;;18.50;99.90;;;;;;4958572;28;20208;-74
2023/07/08 06:00:25;;;;;;;10.77;8.32;;;18.60;99.90;;;;;;4969817;28;20079;-73
2023/07/08 06:02:50;;;;;;;10.00;8.05;;;18.70;99.90;;;;;;4941209;28;20778;-73
2023/07/08 06:05:16;;;;;;;12.88;8.65;;;18.70;99.90;;;;;;4966458;28;20142;-74
2023/07/08 06:07:42;;;;;;;13.60;8.02;;;18.80;99.90;;;;;;4962892;28;20045;-74
2023/07/08 06:10:08;;;;;;;11.32;8.68;;;18.90;99.90;;;;;;4946205;28;20050;-73
2023/07/08 06:12:33;;;;;;;10.63;8.02;;;19.00;99.90;;;;;;4959169;28;20176;-73
2023/07/08 06:14:59;;;;;;;10.70;8.32;;;19.10;99.90;;;;;;4966974;28;20507;-70
2023/07/08 06:17:25;;;;;;;11.30;8.40;;;19.10;99.90;;;;;;4961753;28;20041;-73
2023/07/08 06:19:50;;;;;;;12.88;8.30;;;19.20;99.90;;;;;;4947073;28;20046;-70
2023/07/08 06:22:16;;;;;;;9.55;8.15;;;19.40;99.90;;;;;;4951250;28;20030;-72
2023/07/08 06:24:42;;;;;;;10.60;8.43;;;19.50;99.90;;;;;;4975699;28;20480;-72
2023/07/08 06:27:07;;;;;;;10.35;7.55;;;19.60;99.90;;;;;;4975435;28;21062;-70
2023/07/08 06:29:34;;;;;;;10.98;7.82;;;19.60;99.90;;;;;;4964181;28;20779;-69
2023/07/08 06:32:00;;;;;;;10.00;7.53;;;19.70;99.90;;;;;;4957490;28;20057;-71
2023/07/08 06:34:25;;;;;;;12.13;8.25;;;19.80;99.90;;;;;;4970091;28;20132;-69
2023/07/08 06:36:51;;;;;;;10.55;7.18;;;19.80;99.90;;;;;;4941526;28;20030;-72
2023/07/08 06:42:58;;;;;;;10.60;7.63;;;20.10;99.90;;;;;;4979535;28;20069;-71
2023/07/08 06:45:24;;;;;;;9.35;7.35;;;20.20;99.90;;;;;;4966405;28;20046;-71
2023/07/08 06:47:50;;;;;;;9.85;7.18;;;20.30;99.90;;;;;;4962025;28;20042;-71
2023/07/08 06:50:16;;;;;;;11.63;7.82;;;20.40;99.90;;;;;;4957125;28;20053;-71
2023/07/08 06:52:42;;;;;;;11.27;7.60;;;20.50;99.90;;;;;;4970051;28;20042;-71
2023/07/08 06:55:09;;;;;;;10.57;7.40;;;20.60;99.90;;;;;;4972344;28;20038;-71
2023/07/08 06:57:38;;;;;;;15.88;7.22;;;20.70;99.90;;;;;;4975895;28;20053;-71
2023/07/08 07:00:05;;;;;;;10.73;7.10;;;20.70;99.90;;;;;;4979844;28;20060;-71
2023/07/08 07:02:31;;;;;;;8.20;7.07;;;20.80;99.90;;;;;;4985941;28;20382;-71
2023/07/08 07:04:56;;;;;;;8.80;7.47;;;20.90;99.90;;;;;;4986508;28;20085;-71
2023/07/08 07:07:22;;;;;;;10.52;7.03;;;20.90;99.90;;;;;;4970190;28;20613;-71
2023/07/08 07:09:48;;;;;;;10.82;6.90;;;21.00;99.90;;;;;;4988100;28;20108;-71
2023/07/08 07:12:13;;;;;;;9.60;7.15;;;21.10;99.90;;;;;;4992263;28;20050;-71
2023/07/08 07:14:39;;;;;;;8.93;7.10;;;21.20;99.60;;;;;;4969636;28;20034;-68
2023/07/08 07:17:05;;;;;;;8.55;6.88;;;21.30;99.30;;;;;;4979230;28;20043;-68
2023/07/08 07:19:30;;;;;;;14.82;6.90;;;21.40;99.30;;;;;;4990386;28;20071;-71
2023/07/08 07:21:56;;;;;;;10.50;6.65;;;21.40;99.10;;;;;;4961555;28;20463;-71
2023/07/08 07:24:21;;;;;;;11.13;6.85;;;21.50;99.00;;;;;;4971186;28;20042;-69
2023/07/08 07:26:47;;;;;;;8.48;6.72;;;21.60;99.00;;;;;;4982036;28;20439;-70
2023/07/08 07:42:11;;;;;;;8.57;7.00;;;22.10;98.10;;;;;;5949301;22;20551;-65
2023/07/08 07:44:39;;;;;;;9.80;6.97;;;22.30;98.00;;;;;;4979940;28;20485;-64
2023/07/08 07:47:05;;;;;;;11.40;6.68;;;22.30;98.10;;;;;;4978283;28;20042;-64
2023/07/08 07:49:31;;;;;;;9.63;6.85;;;22.40;97.30;;;;;;4976592;28;20042;-64
2023/07/08 07:51:57;;;;;;;7.53;6.35;;;22.40;97.30;;;;;;4976557;28;20092;-65
2023/07/08 07:54:23;;;;;;;8.93;6.68;;;22.50;97.20;;;;;;4977540;28;20035;-65
2023/07/08 07:59:17;;;;;;;9.05;6.60;;;22.60;97.40;;;;;;4960997;28;20043;-68
2023/07/08 08:01:42;;;;;;;11.50;6.95;;;22.80;97.60;;;;;;4935560;29;20058;-67
2023/07/08 08:04:10;;;;;;;10.07;6.13;;;22.90;97.10;;;;;;4951120;28;20035;-69
2023/07/08 08:06:35;;;;;;;12.32;6.63;;;23.00;96.60;;;;;;4934732;28;20407;-69
2023/07/08 08:09:02;;;;;;;10.45;6.40;;;23.10;96.60;;;;;;4955830;28;20046;-69
2023/07/08 08:11:27;;;;;;;15.27;7.25;;;23.10;96.50;;;;;;4937603;29;20066;-70
2023/07/08 08:13:53;;;;;;;7.68;6.47;;;23.30;96.60;;;;;;4952798;28;20129;-70
2023/07/08 08:16:23;;;;;;;12.35;6.88;;;23.40;96.50;;;;;;4950919;28;20047;-70
2023/07/08 08:18:49;;;;;;;8.90;6.95;;;23.50;96.30;;;;;;4944495;28;20050;-69
2023/07/08 08:21:14;;;;;;;8.43;6.53;;;23.60;96.40;;;;;;4950349;28;20042;-69
2023/07/08 08:23:40;;;;;;;8.15;6.80;;;23.70;95.80;;;;;;4950111;28;20046;-69
2023/07/08 08:32:01;;;;;;;9.20;6.90;;;23.90;95.80;;;;;;5039593;22;20059;-70
2023/07/08 08:34:28;;;;;;;10.82;6.85;;;23.90;96.00;;;;;;4975920;28;20061;-70
2023/07/08 08:36:55;;;;;;;11.20;7.28;;;24.00;95.40;;;;;;4984933;28;20097;-71
2023/07/08 08:39:21;;;;;;;9.18;7.20;;;24.20;96.00;;;;;;4974945;28;20051;-70
2023/07/08 08:41:49;;;;;;;8.55;6.88;;;24.20;95.90;;;;;;4991310;28;20058;-71
2023/07/08 08:44:22;;;;;;;9.23;6.95;;;24.30;95.70;;;;;;4984200;23;20069;-63
2023/07/08 08:47:06;;;;;;;8.20;6.78;;;24.50;95.80;;;;;;4962073;28;20394;-63
2023/07/08 08:49:46;;;;;;;8.23;6.88;;;24.40;93.90;;;;;;4958940;28;20036;-62
2023/07/08 08:52:13;;;;;;;11.50;7.27;;;24.40;94.40;;;;;;4953400;28;20047;-63
2023/07/08 08:54:40;;;;;;;8.27;6.65;;;24.40;94.30;;;;;;4962421;28;20054;-62
2023/07/08 08:57:19;;;;;;;10.55;6.90;;;24.50;95.00;;;;;;4953423;28;20062;-62
2023/07/08 08:59:57;;;;;;;11.55;7.15;;;24.60;95.10;;;;;;4954929;28;20039;-63
2023/07/08 09:02:48;;;;;;;9.32;6.70;;;24.80;95.00;;;;;;4963508;28;20046;-64
2023/07/08 09:05:15;;;;;;;9.52;6.90;;;24.90;94.10;;;;;;4963768;28;20381;-63
2023/07/08 09:08:12;;;;;;;13.30;7.15;;;25.00;94.50;;;;;;4955507;29;20035;-64
2023/07/08 09:10:44;;;;;;;10.70;6.55;;;25.00;94.00;;;;;;4958520;28;20406;-63
2023/07/08 09:13:17;;;;;;;11.18;6.93;;;25.10;93.70;;;;;;4962857;28;20129;-62
2023/07/08 09:15:43;;;;;;;8.38;6.35;;;25.20;94.50;;;;;;4955447;28;20046;-63
2023/07/08 09:18:23;;;;;;;9.45;6.57;;;25.40;94.20;;;;;;4962064;28;20135;-63
2023/07/08 09:20:50;;;;;;;10.68;6.57;;;25.70;93.50;;;;;;4954606;28;20043;-63
2023/07/08 09:23:30;;;;;;;8.02;6.90;;;25.70;93.50;;;;;;4974337;28;20093;-63
2023/07/08 09:26:07;;;;;;;9.87;7.47;;;25.80;93.10;;;;;;4972230;28;20089;-63
2023/07/08 09:28:38;;;;;;;7.28;6.43;;;26.00;92.60;;;;;;4970306;28;20045;-62
2023/07/08 09:31:05;;;;;;;;;;;26.10;93.50;;;;;;4966335;28;20489;-63
2023/07/08 09:33:30;;;;;;;8.15;6.00;;;26.30;93.80;;;;;;4971214;28;19926;-62
2023/07/08 09:35:56;;;;;;;9.40;6.63;;;26.40;93.60;;;;;;4957514;28;20053;-63
2023/07/08 09:38:22;;;;;;;7.68;6.65;;;26.40;93.10;;;;;;4954712;28;20031;-63
2023/07/08 09:40:53;;;;;;;8.27;6.95;;;26.40;92.60;;;;;;4954191;28;20107;-63
2023/07/08 09:43:37;;;;;;;10.07;6.55;;;26.60;92.80;;;;;;4958559;28;20043;-63
2023/07/08 09:46:04;;;;;;;12.00;6.32;;;26.60;92.70;;;;;;4953055;28;20082;-64
2023/07/08 09:48:35;;;;;;;8.10;6.43;;;26.70;92.60;;;;;;4951712;28;20135;-63
2023/07/08 09:51:02;;;;;;;7.53;6.72;;;26.90;91.90;;;;;;4966029;28;20035;-63
2023/07/08 09:53:28;;;;;;;6.78;6.03;;;27.10;92.30;;;;;;4958750;28;20121;-63
2023/07/08 09:55:57;;;;;;;13.60;6.65;;;27.10;92.20;;;;;;4960466;28;20062;-62
2023/07/08 09:58:31;;;;;;;9.82;6.60;;;27.10;92.00;;;;;;4971010;28;20493;-63
2023/07/08 10:01:13;;;;;;;7.97;6.60;;;27.30;91.20;;;;;;4974028;28;20054;-63
2023/07/08 10:03:39;;;;;;;10.93;6.05;;;27.30;91.10;;;;;;4961547;28;20051;-63
2023/07/08 10:06:27;;;;;;;10.50;6.93;;;27.30;91.40;;;;;;4965418;28;20073;-63
2023/07/08 10:09:04;;;;;;;8.43;6.10;;;27.50;91.20;;;;;;4968638;28;20051;-63
2023/07/08 10:11:35;;;;;;;7.53;6.28;;;27.70;90.70;;;;;;4959158;28;20424;-63
2023/07/08 10:14:41;;;;;;;14.20;6.68;;;27.60;88.90;;;;;;4974048;28;20038;-63
2023/07/08 10:17:19;;;;;;;12.13;6.80;;;27.80;90.40;;;;;;4963671;28;20129;-63
2023/07/08 10:19:44;;;;;;;7.45;6.00;;;28.00;90.40;;;;;;4955460;28;20039;-64
2023/07/08 10:22:27;;;;;;;8.98;6.25;;;28.10;89.70;;;;;;4962358;28;20034;-64
2023/07/08 10:25:02;;;;;;;9.55;6.40;;;28.10;88.10;;;;;;4964645;28;20057;-63
2023/07/08 10:27:44;;;;;;;9.65;6.22;;;28.20;90.20;;;;;;4951293;28;20142;-64
2023/07/08 10:30:25;;;;;;;12.13;6.10;;;28.50;88.80;;;;;;4953490;28;20047;-64
2023/07/08 10:33:14;;;;;;;9.48;6.60;;;28.60;89.90;;;;;;4959171;28;20489;-63
2023/07/08 10:36:01;;;;;;;8.27;6.20;;;28.70;87.40;;;;;;4958749;28;20045;-63
2023/07/08 10:39:04;;;;;;;8.63;6.10;;;28.80;87.50;;;;;;4954088;29;20036;-63
2023/07/08 10:41:51;;;;;;;7.13;6.38;;;28.80;85.20;;;;;;4946972;28;20043;-63
2023/07/08 10:44:29;;;;;;;10.98;6.25;;;28.80;87.60;;;;;;4953220;28;20074;-63
2023/07/08 10:47:01;;;;;;;8.05;6.03;;;29.00;84.80;;;;;;4955380;28;20039;-63
2023/07/08 10:50:15;;;;;;;12.82;6.28;;;29.00;84.60;;;;;;4960263;28;20039;-63
2023/07/08 10:53:25;;;;;;;10.60;6.13;;;29.00;82.00;;;;;;4889291;29;20052;-64
2023/07/08 10:55:57;;;;;;;7.25;5.88;;;29.00;83.40;;;;;;4879642;29;20048;-63
2023/07/08 10:59:01;;;;;;;11.00;5.80;;;29.30;86.00;;;;;;4942497;28;20090;-63
2023/07/08 11:01:58;;;;;;;12.13;5.72;;;29.40;83.80;;;;;;4940079;28;20054;-63
2023/07/08 11:04:35;;;;;;;8.38;6.25;;;29.50;78.50;;;;;;4960414;28;20531;-63
2023/07/08 11:07:22;;;;;;;8.05;5.68;;;29.50;81.00;;;;;;4953123;28;20071;-63
2023/07/08 11:09:59;;;;;;;12.60;5.90;;;29.50;83.50;;;;;;4952715;29;20089;-63
2023/07/08 11:12:32;;;;;;;10.23;6.20;;;29.70;81.10;;;;;;4962218;28;20371;-64
2023/07/08 11:15:18;;;;;;;8.73;5.88;;;29.80;81.10;;;;;;4966228;28;20039;-63
2023/07/08 11:17:52;;;;;;;11.15;5.85;;;30.00;83.20;;;;;;4950937;28;20556;-64
2023/07/08 11:20:56;;;;;;;9.45;6.32;;;30.10;78.10;;;;;;4951490;28;20090;-63
2023/07/08 11:23:40;;;;;;;8.48;5.70;;;30.00;77.10;;;;;;4953098;28;20035;-63
2023/07/08 11:26:15;;;;;;;10.02;6.35;;;30.20;79.70;;;;;;4951440;28;20035;-63
2023/07/08 11:28:40;;;;;;;11.43;6.00;;;30.20;81.00;;;;;;4952185;28;20043;-62
2023/07/08 11:31:07;;;;;;;8.57;6.07;;;30.20;77.60;;;;;;4956724;28;20397;-63
2023/07/08 11:33:34;;;;;;;10.65;6.00;;;30.30;77.90;;;;;;4953986;28;20504;-63
2023/07/08 11:36:02;;;;;;;6.78;5.55;;;30.50;77.80;;;;;;4953296;28;20042;-64
2023/07/08 11:38:28;;;;;;;10.00;6.00;;;30.70;77.50;;;;;;4957743;28;20053;-63
2023/07/08 11:40:58;;;;;;;7.55;6.03;;;30.90;78.70;;;;;;4961215;28;20126;-62
2023/07/08 11:43:27;;;;;;;6.70;5.85;;;31.00;77.80;;;;;;4952910;28;20450;-63
2023/07/08 11:45:56;;;;;;;8.68;5.95;;;31.10;75.40;;;;;;4966380;28;20123;-63
2023/07/08 11:48:30;;;;;;;8.35;6.13;;;31.10;73.10;;;;;;4960492;28;20083;-64
2023/07/08 11:50:57;;;;;;;10.88;6.10;;;31.10;74.40;;;;;;4951291;28;20071;-63
2023/07/08 11:53:29;;;;;;;7.95;6.38;;;31.10;73.20;;;;;;4953446;29;20050;-64
2023/07/08 11:56:00;;;;;;;7.57;5.93;;;31.40;73.30;;;;;;4950277;28;20649;-64
2023/07/08 11:58:29;;;;;;;12.10;6.18;;;31.50;73.20;;;;;;4956503;28;20038;-63
2023/07/08 12:00:59;;;;;;;9.77;6.40;;;31.30;71.90;;;;;;4963662;28;20504;-64
2023/07/08 12:03:37;;;;;;;9.52;6.05;;;31.40;72.30;;;;;;4943863;28;20157;-64
2023/07/08 12:06:06;;;;;;;8.80;6.00;;;31.60;74.60;;;;;;4951545;28;20058;-65
2023/07/08 12:08:40;;;;;;;7.68;5.63;;;31.70;72.00;;;;;;4952207;28;20054;-64
2023/07/08 12:11:11;;;;;;;9.32;6.20;;;31.80;68.80;;;;;;4955987;28;20050;-64
2023/07/08 12:13:37;;;;;;;7.82;6.07;;;31.90;70.10;;;;;;4961163;28;20126;-65
2023/07/08 12:16:07;;;;;;;13.82;6.70;;;32.10;71.40;;;;;;4968360;28;20122;-64
2023/07/08 12:18:38;;;;;;;7.57;6.03;;;32.30;71.10;;;;;;4975594;28;20134;-64
2023/07/08 12:21:04;;;;;;;7.95;6.43;;;32.30;69.10;;;;;;4962416;28;20304;-64
2023/07/08 12:23:30;;;;;;;9.85;5.90;;;32.40;70.10;;;;;;4960868;28;20051;-63
2023/07/08 12:25:57;;;;;;;9.20;6.10;;;32.50;69.20;;;;;;4956062;28;20065;-63
2023/07/08 12:28:24;;;;;;;10.27;6.60;;;32.50;68.20;;;;;;4955964;29;20043;-64
2023/07/08 12:30:51;;;;;;;10.57;6.45;;;32.60;65.30;;;;;;4973257;28;20089;-63
2023/07/08 12:33:32;;;;;;;9.15;6.05;;;32.70;67.50;;;;;;4965370;28;20050;-63
2023/07/08 12:36:00;;;;;;;8.25;6.40;;;32.80;65.80;;;;;;4956247;28;20493;-63
2023/07/08 12:38:38;;;;;;;8.98;6.07;;;32.90;66.50;;;;;;4961523;28;20564;-63
2023/07/08 12:41:14;;;;;;;9.27;6.45;;;32.90;64.20;;;;;;4957576;28;20047;-64
2023/07/08 12:43:39;;;;;;;8.88;6.20;;;33.00;65.30;;;;;;4956140;29;20043;-63
2023/07/08 12:46:09;;;;;;;15.15;6.70;;;33.10;65.80;;;;;;4960435;28;20049;-63
2023/07/08 12:48:35;;;;;;;9.90;5.95;;;33.10;65.10;;;;;;4967339;28;20059;-63
2023/07/08 12:51:02;;;;;;;9.27;6.38;;;33.10;64.40;;;;;;4953280;28;20039;-63
2023/07/08 12:53:27;;;;;;;9.95;6.25;;;33.20;63.70;;;;;;4939472;28;20057;-63
2023/07/08 12:55:56;;;;;;;8.48;6.35;;;33.30;64.00;;;;;;4950696;28;20043;-63
2023/07/08 12:58:28;;;;;;;7.22;5.95;;;33.40;62.10;;;;;;4943485;28;20039;-64
2023/07/08 13:00:56;;;;;;;7.45;5.55;;;33.50;62.20;;;;;;4927073;29;20046;-64
2023/07/08 13:03:29;;;;;;;8.38;5.57;;;33.60;62.10;;;;;;4962508;28;20053;-64
2023/07/08 13:05:57;;;;;;;8.38;5.78;;;33.60;61.90;;;;;;4964072;28;20046;-65
2023/07/08 13:08:27;;;;;;;8.43;5.90;;;33.70;60.40;;;;;;4942646;28;20051;-64
2023/07/08 13:10:57;;;;;;;8.85;5.93;;;33.60;58.10;;;;;;4950318;28;20046;-65
2023/07/08 13:13:26;;;;;;;8.48;6.40;;;33.70;58.90;;;;;;4947828;28;20059;-64
2023/07/08 13:15:52;;;;;;;9.25;6.30;;;33.90;58.90;;;;;;4959179;28;20065;-63
2023/07/08 13:18:21;;;;;;;8.18;5.95;;;33.90;59.40;;;;;;4959212;28;20047;-66